sensor_id;sensor_type;location;lat;lon;timestamp;P1;durP1;ratioP1;P2;durP2;ratioP2
7607;SDS011;3845;48.120;11.534;2022-10-31T00:01:49;7.77;;;5.50;;
7607;SDS011;3845;48.120;11.534;2022-10-31T00:04:15;8.23;;;5.20;;
7607;SDS011;3845;48.120;11.534;2022-10-31T00:06:40;8.73;;;5.13;;
7607;SDS011;3845;48.120;11.534;2022-10-31T00:09:05;8.27;;;5.20;;
7607;SDS011;3845;48.120;11.534;2022-10-31T00:11:31;7.10;;;5.13;;
7607;SDS011;3845;48.120;11.534;2022-10-31T00:13:56;8.30;;;5.20;;
7607;SDS011;3845;48.120;11.534;2022-10-31T00:16:23;8.10;;;5.43;;
7607;SDS011;3845;48.120;11.534;2022-10-31T00:18:53;8.07;;;5.83;;
7607;SDS011;3845;48.120;11.534;2022-10-31T00:21:20;7.50;;;5.20;;
7607;SDS011;3845;48.120;11.534;2022-10-31T00:23:46;8.67;;;5.60;;
7607;SDS011;3845;48.120;11.534;2022-10-31T00:26:11;10.27;;;5.67;;
7607;SDS011;3845;48.120;11.534;2022-10-31T00:28:37;8.63;;;5.40;;
7607;SDS011;3845;48.120;11.534;2022-10-31T00:31:03;8.10;;;5.53;;
7607;SDS011;3845;48.120;11.534;2022-10-31T00:33:33;8.63;;;5.50;;
7607;SDS011;3845;48.120;11.534;2022-10-31T00:35:59;8.90;;;4.93;;
7607;SDS011;3845;48.120;11.534;2022-10-31T00:38:24;7.07;;;5.17;;
7607;SDS011;3845;48.120;11.534;2022-10-31T00:40:49;8.33;;;5.60;;
7607;SDS011;3845;48.120;11.534;2022-10-31T00:43:15;8.17;;;5.33;;
7607;SDS011;3845;48.120;11.534;2022-10-31T00:45:41;9.13;;;5.50;;
7607;SDS011;3845;48.120;11.534;2022-10-31T00:48:07;8.83;;;5.40;;
7607;SDS011;3845;48.120;11.534;2022-10-31T00:50:32;9.37;;;5.30;;
7607;SDS011;3845;48.120;11.534;2022-10-31T00:52:58;8.87;;;5.00;;
7607;SDS011;3845;48.120;11.534;2022-10-31T00:55:24;9.50;;;4.90;;
7607;SDS011;3845;48.120;11.534;2022-10-31T00:57:49;8.07;;;4.97;;
7607;SDS011;3845;48.120;11.534;2022-10-31T01:00:14;9.27;;;5.20;;
7607;SDS011;3845;48.120;11.534;2022-10-31T01:02:40;8.27;;;5.37;;
7607;SDS011;3845;48.120;11.534;2022-10-31T01:05:05;7.23;;;4.90;;
7607;SDS011;3845;48.120;11.534;2022-10-31T01:07:31;8.27;;;4.93;;
7607;SDS011;3845;48.120;11.534;2022-10-31T01:09:56;7.80;;;4.40;;
7607;SDS011;3845;48.120;11.534;2022-10-31T01:12:21;6.33;;;4.20;;
7607;SDS011;3845;48.120;11.534;2022-10-31T01:14:47;7.20;;;4.10;;
7607;SDS011;3845;48.120;11.534;2022-10-31T01:17:13;6.03;;;4.07;;
7607;SDS011;3845;48.120;11.534;2022-10-31T01:19:38;7.60;;;4.40;;
7607;SDS011;3845;48.120;11.534;2022-10-31T01:22:04;7.60;;;4.03;;
7607;SDS011;3845;48.120;11.534;2022-10-31T01:24:29;5.67;;;3.80;;
7607;SDS011;3845;48.120;11.534;2022-10-31T01:26:54;6.93;;;3.83;;
7607;SDS011;3845;48.120;11.534;2022-10-31T01:29:20;9.07;;;4.10;;
7607;SDS011;3845;48.120;11.534;2022-10-31T01:31:45;7.17;;;4.20;;
7607;SDS011;3845;48.120;11.534;2022-10-31T01:34:14;7.47;;;4.00;;
7607;SDS011;3845;48.120;11.534;2022-10-31T01:36:40;4.80;;;3.50;;
7607;SDS011;3845;48.120;11.534;2022-10-31T01:39:14;8.00;;;3.83;;
7607;SDS011;3845;48.120;11.534;2022-10-31T01:41:41;6.73;;;3.80;;
7607;SDS011;3845;48.120;11.534;2022-10-31T01:46:47;5.77;;;3.43;;
7607;SDS011;3845;48.120;11.534;2022-10-31T01:51:57;5.33;;;3.20;;
7607;SDS011;3845;48.120;11.534;2022-10-31T01:54:26;4.30;;;3.27;;
7607;SDS011;3845;48.120;11.534;2022-10-31T01:56:53;7.20;;;3.50;;
7607;SDS011;3845;48.120;11.534;2022-10-31T01:59:20;6.97;;;3.30;;
7607;SDS011;3845;48.120;11.534;2022-10-31T02:01:47;7.30;;;3.63;;
7607;SDS011;3845;48.120;11.534;2022-10-31T02:04:15;6.33;;;3.43;;
7607;SDS011;3845;48.120;11.534;2022-10-31T02:09:10;4.93;;;3.13;;
7607;SDS011;3845;48.120;11.534;2022-10-31T02:11:37;6.00;;;3.53;;
7607;SDS011;3845;48.120;11.534;2022-10-31T02:14:03;5.10;;;3.10;;
7607;SDS011;3845;48.120;11.534;2022-10-31T02:16:28;4.93;;;3.27;;
7607;SDS011;3845;48.120;11.534;2022-10-31T02:18:54;5.27;;;3.10;;
7607;SDS011;3845;48.120;11.534;2022-10-31T02:21:23;7.10;;;3.67;;
7607;SDS011;3845;48.120;11.534;2022-10-31T02:26:57;7.90;;;4.10;;
7607;SDS011;3845;48.120;11.534;2022-10-31T02:32:30;8.00;;;3.50;;
7607;SDS011;3845;48.120;11.534;2022-10-31T02:35:13;5.37;;;3.40;;
7607;SDS011;3845;48.120;11.534;2022-10-31T02:37:52;7.73;;;3.90;;
7607;SDS011;3845;48.120;11.534;2022-10-31T02:40:23;6.23;;;3.23;;
7607;SDS011;3845;48.120;11.534;2022-10-31T02:42:57;4.80;;;3.30;;
7607;SDS011;3845;48.120;11.534;2022-10-31T02:45:29;7.37;;;3.27;;
7607;SDS011;3845;48.120;11.534;2022-10-31T02:47:58;4.97;;;3.10;;
7607;SDS011;3845;48.120;11.534;2022-10-31T02:50:26;6.40;;;3.30;;
7607;SDS011;3845;48.120;11.534;2022-10-31T02:52:55;6.03;;;3.10;;
7607;SDS011;3845;48.120;11.534;2022-10-31T02:57:53;7.83;;;4.43;;
7607;SDS011;3845;48.120;11.534;2022-10-31T03:00:20;6.73;;;4.50;;
7607;SDS011;3845;48.120;11.534;2022-10-31T03:11:01;8.43;;;3.43;;
7607;SDS011;3845;48.120;11.534;2022-10-31T03:13:35;6.20;;;3.10;;
7607;SDS011;3845;48.120;11.534;2022-10-31T03:16:11;6.80;;;3.37;;
7607;SDS011;3845;48.120;11.534;2022-10-31T03:18:40;7.97;;;3.00;;
7607;SDS011;3845;48.120;11.534;2022-10-31T03:21:20;5.80;;;3.63;;
7607;SDS011;3845;48.120;11.534;2022-10-31T03:23:47;5.63;;;3.00;;
7607;SDS011;3845;48.120;11.534;2022-10-31T03:26:14;4.93;;;3.10;;
7607;SDS011;3845;48.120;11.534;2022-10-31T03:28:45;5.07;;;2.90;;
7607;SDS011;3845;48.120;11.534;2022-10-31T03:31:12;7.37;;;3.67;;
7607;SDS011;3845;48.120;11.534;2022-10-31T03:33:41;6.67;;;3.50;;
7607;SDS011;3845;48.120;11.534;2022-10-31T03:36:07;5.27;;;3.43;;
7607;SDS011;3845;48.120;11.534;2022-10-31T03:38:33;5.73;;;3.47;;
7607;SDS011;3845;48.120;11.534;2022-10-31T03:41:00;5.70;;;3.03;;
7607;SDS011;3845;48.120;11.534;2022-10-31T03:43:29;6.47;;;3.13;;
7607;SDS011;3845;48.120;11.534;2022-10-31T03:45:57;4.27;;;3.20;;
7607;SDS011;3845;48.120;11.534;2022-10-31T03:48:22;5.33;;;3.30;;
7607;SDS011;3845;48.120;11.534;2022-10-31T03:56:53;4.67;;;3.00;;
7607;SDS011;3845;48.120;11.534;2022-10-31T03:59:26;6.37;;;3.40;;
7607;SDS011;3845;48.120;11.534;2022-10-31T04:01:57;5.30;;;3.03;;
7607;SDS011;3845;48.120;11.534;2022-10-31T04:04:26;5.93;;;3.90;;
7607;SDS011;3845;48.120;11.534;2022-10-31T04:06:52;7.83;;;5.00;;
7607;SDS011;3845;48.120;11.534;2022-10-31T04:09:18;7.50;;;4.60;;
7607;SDS011;3845;48.120;11.534;2022-10-31T04:11:48;6.87;;;4.10;;
7607;SDS011;3845;48.120;11.534;2022-10-31T04:14:15;5.90;;;3.73;;
7607;SDS011;3845;48.120;11.534;2022-10-31T04:16:41;7.53;;;3.50;;
7607;SDS011;3845;48.120;11.534;2022-10-31T04:19:08;7.27;;;3.70;;
7607;SDS011;3845;48.120;11.534;2022-10-31T04:21:33;5.23;;;3.63;;
7607;SDS011;3845;48.120;11.534;2022-10-31T04:23:58;7.57;;;3.30;;
7607;SDS011;3845;48.120;11.534;2022-10-31T04:26:24;6.37;;;3.37;;
7607;SDS011;3845;48.120;11.534;2022-10-31T04:28:49;4.83;;;3.23;;
7607;SDS011;3845;48.120;11.534;2022-10-31T04:31:14;4.97;;;3.30;;
7607;SDS011;3845;48.120;11.534;2022-10-31T04:33:40;5.27;;;3.07;;
7607;SDS011;3845;48.120;11.534;2022-10-31T04:36:06;5.57;;;3.20;;
7607;SDS011;3845;48.120;11.534;2022-10-31T04:38:31;5.63;;;3.37;;
7607;SDS011;3845;48.120;11.534;2022-10-31T04:40:57;7.60;;;3.30;;
7607;SDS011;3845;48.120;11.534;2022-10-31T04:43:22;5.60;;;3.17;;
7607;SDS011;3845;48.120;11.534;2022-10-31T04:45:47;7.03;;;3.17;;
7607;SDS011;3845;48.120;11.534;2022-10-31T04:48:13;4.33;;;2.80;;
7607;SDS011;3845;48.120;11.534;2022-10-31T04:50:38;5.50;;;3.00;;
7607;SDS011;3845;48.120;11.534;2022-10-31T04:53:03;4.97;;;2.80;;
7607;SDS011;3845;48.120;11.534;2022-10-31T04:55:28;5.93;;;3.37;;
7607;SDS011;3845;48.120;11.534;2022-10-31T04:57:54;9.13;;;3.50;;
7607;SDS011;3845;48.120;11.534;2022-10-31T05:00:20;5.07;;;3.33;;
7607;SDS011;3845;48.120;11.534;2022-10-31T05:02:46;4.70;;;2.77;;
7607;SDS011;3845;48.120;11.534;2022-10-31T05:05:16;6.03;;;3.10;;
7607;SDS011;3845;48.120;11.534;2022-10-31T05:07:42;5.97;;;3.23;;
7607;SDS011;3845;48.120;11.534;2022-10-31T05:10:09;4.90;;;2.93;;
7607;SDS011;3845;48.120;11.534;2022-10-31T05:12:35;4.80;;;3.17;;
7607;SDS011;3845;48.120;11.534;2022-10-31T05:15:01;3.67;;;2.67;;
7607;SDS011;3845;48.120;11.534;2022-10-31T05:17:26;8.47;;;3.63;;
7607;SDS011;3845;48.120;11.534;2022-10-31T05:19:51;6.87;;;3.03;;
7607;SDS011;3845;48.120;11.534;2022-10-31T05:22:16;5.93;;;3.17;;
7607;SDS011;3845;48.120;11.534;2022-10-31T05:24:42;6.60;;;3.13;;
7607;SDS011;3845;48.120;11.534;2022-10-31T05:27:07;5.83;;;3.00;;
7607;SDS011;3845;48.120;11.534;2022-10-31T05:29:32;4.87;;;3.30;;
7607;SDS011;3845;48.120;11.534;2022-10-31T05:31:58;4.60;;;3.10;;
7607;SDS011;3845;48.120;11.534;2022-10-31T05:34:24;5.33;;;3.60;;
7607;SDS011;3845;48.120;11.534;2022-10-31T05:36:49;6.27;;;3.60;;
7607;SDS011;3845;48.120;11.534;2022-10-31T05:39:14;6.63;;;3.97;;
7607;SDS011;3845;48.120;11.534;2022-10-31T05:41:39;7.93;;;3.60;;
7607;SDS011;3845;48.120;11.534;2022-10-31T05:44:05;7.80;;;3.77;;
7607;SDS011;3845;48.120;11.534;2022-10-31T05:46:30;6.97;;;3.87;;
7607;SDS011;3845;48.120;11.534;2022-10-31T05:48:55;7.77;;;3.60;;
7607;SDS011;3845;48.120;11.534;2022-10-31T05:51:20;8.00;;;3.80;;
7607;SDS011;3845;48.120;11.534;2022-10-31T05:53:46;6.77;;;3.80;;
7607;SDS011;3845;48.120;11.534;2022-10-31T05:56:12;4.97;;;3.73;;
7607;SDS011;3845;48.120;11.534;2022-10-31T05:58:37;8.53;;;3.90;;
7607;SDS011;3845;48.120;11.534;2022-10-31T06:01:02;8.83;;;3.87;;
7607;SDS011;3845;48.120;11.534;2022-10-31T06:03:27;5.97;;;3.83;;
7607;SDS011;3845;48.120;11.534;2022-10-31T06:05:53;5.00;;;3.40;;
7607;SDS011;3845;48.120;11.534;2022-10-31T06:08:18;5.37;;;3.57;;
7607;SDS011;3845;48.120;11.534;2022-10-31T06:10:43;9.20;;;4.30;;
7607;SDS011;3845;48.120;11.534;2022-10-31T06:13:09;4.77;;;3.83;;
7607;SDS011;3845;48.120;11.534;2022-10-31T06:15:34;7.60;;;4.03;;
7607;SDS011;3845;48.120;11.534;2022-10-31T06:18:00;7.27;;;4.10;;
7607;SDS011;3845;48.120;11.534;2022-10-31T06:20:27;6.27;;;3.70;;
7607;SDS011;3845;48.120;11.534;2022-10-31T06:22:52;5.50;;;3.93;;
7607;SDS011;3845;48.120;11.534;2022-10-31T06:25:17;5.30;;;3.70;;
7607;SDS011;3845;48.120;11.534;2022-10-31T06:27:42;4.93;;;3.47;;
7607;SDS011;3845;48.120;11.534;2022-10-31T06:30:08;5.70;;;3.63;;
7607;SDS011;3845;48.120;11.534;2022-10-31T06:32:34;5.07;;;3.87;;
7607;SDS011;3845;48.120;11.534;2022-10-31T06:34:59;7.07;;;3.90;;
7607;SDS011;3845;48.120;11.534;2022-10-31T06:37:24;5.07;;;3.40;;
7607;SDS011;3845;48.120;11.534;2022-10-31T06:39:49;4.57;;;3.63;;
7607;SDS011;3845;48.120;11.534;2022-10-31T06:42:15;6.23;;;3.70;;
7607;SDS011;3845;48.120;11.534;2022-10-31T06:44:41;9.23;;;3.77;;
7607;SDS011;3845;48.120;11.534;2022-10-31T06:47:06;6.77;;;3.37;;
7607;SDS011;3845;48.120;11.534;2022-10-31T06:49:31;7.40;;;3.77;;
7607;SDS011;3845;48.120;11.534;2022-10-31T06:51:57;6.93;;;3.83;;
7607;SDS011;3845;48.120;11.534;2022-10-31T06:54:22;5.77;;;3.40;;
7607;SDS011;3845;48.120;11.534;2022-10-31T06:56:47;5.33;;;3.37;;
7607;SDS011;3845;48.120;11.534;2022-10-31T06:59:13;5.03;;;3.40;;
7607;SDS011;3845;48.120;11.534;2022-10-31T07:01:39;9.10;;;3.50;;
7607;SDS011;3845;48.120;11.534;2022-10-31T07:04:04;6.27;;;3.43;;
7607;SDS011;3845;48.120;11.534;2022-10-31T07:06:30;5.83;;;3.23;;
7607;SDS011;3845;48.120;11.534;2022-10-31T07:08:55;27.37;;;19.10;;
7607;SDS011;3845;48.120;11.534;2022-10-31T07:11:20;32.53;;;24.83;;
7607;SDS011;3845;48.120;11.534;2022-10-31T07:13:46;35.40;;;26.70;;
7607;SDS011;3845;48.120;11.534;2022-10-31T07:16:11;21.43;;;16.70;;
7607;SDS011;3845;48.120;11.534;2022-10-31T07:18:37;16.50;;;12.77;;
7607;SDS011;3845;48.120;11.534;2022-10-31T07:21:03;14.03;;;10.70;;
7607;SDS011;3845;48.120;11.534;2022-10-31T07:23:29;11.87;;;8.97;;
7607;SDS011;3845;48.120;11.534;2022-10-31T07:25:57;9.27;;;7.60;;
7607;SDS011;3845;48.120;11.534;2022-10-31T07:28:23;9.57;;;6.30;;
7607;SDS011;3845;48.120;11.534;2022-10-31T07:30:51;7.07;;;5.40;;
7607;SDS011;3845;48.120;11.534;2022-10-31T07:33:19;7.67;;;4.87;;
7607;SDS011;3845;48.120;11.534;2022-10-31T07:35:45;7.13;;;4.77;;
7607;SDS011;3845;48.120;11.534;2022-10-31T07:38:11;7.53;;;4.57;;
7607;SDS011;3845;48.120;11.534;2022-10-31T07:40:38;5.80;;;4.10;;
7607;SDS011;3845;48.120;11.534;2022-10-31T07:43:03;6.70;;;3.90;;
7607;SDS011;3845;48.120;11.534;2022-10-31T07:45:29;7.30;;;3.97;;
7607;SDS011;3845;48.120;11.534;2022-10-31T07:47:54;8.90;;;3.87;;
7607;SDS011;3845;48.120;11.534;2022-10-31T07:50:21;7.17;;;3.73;;
7607;SDS011;3845;48.120;11.534;2022-10-31T07:52:48;9.50;;;3.60;;
7607;SDS011;3845;48.120;11.534;2022-10-31T07:55:13;8.63;;;3.80;;
7607;SDS011;3845;48.120;11.534;2022-10-31T07:57:39;8.17;;;3.70;;
7607;SDS011;3845;48.120;11.534;2022-10-31T08:00:06;8.13;;;3.67;;
7607;SDS011;3845;48.120;11.534;2022-10-31T08:02:32;6.90;;;3.60;;
7607;SDS011;3845;48.120;11.534;2022-10-31T08:04:58;5.63;;;3.60;;
7607;SDS011;3845;48.120;11.534;2022-10-31T08:07:24;4.90;;;3.40;;
7607;SDS011;3845;48.120;11.534;2022-10-31T08:09:50;5.20;;;3.40;;
7607;SDS011;3845;48.120;11.534;2022-10-31T08:12:15;5.93;;;3.30;;
7607;SDS011;3845;48.120;11.534;2022-10-31T08:14:40;7.57;;;3.60;;
7607;SDS011;3845;48.120;11.534;2022-10-31T08:17:06;6.13;;;3.20;;
7607;SDS011;3845;48.120;11.534;2022-10-31T08:19:31;5.17;;;2.93;;
7607;SDS011;3845;48.120;11.534;2022-10-31T08:21:56;5.97;;;3.20;;
7607;SDS011;3845;48.120;11.534;2022-10-31T08:24:22;7.07;;;2.87;;
7607;SDS011;3845;48.120;11.534;2022-10-31T08:26:48;4.23;;;2.70;;
7607;SDS011;3845;48.120;11.534;2022-10-31T08:29:13;7.27;;;2.80;;
7607;SDS011;3845;48.120;11.534;2022-10-31T08:31:39;4.57;;;2.80;;
7607;SDS011;3845;48.120;11.534;2022-10-31T08:34:05;4.73;;;3.00;;
7607;SDS011;3845;48.120;11.534;2022-10-31T08:36:30;9.33;;;2.97;;
7607;SDS011;3845;48.120;11.534;2022-10-31T08:38:55;5.80;;;2.97;;
7607;SDS011;3845;48.120;11.534;2022-10-31T08:41:21;5.10;;;3.03;;
7607;SDS011;3845;48.120;11.534;2022-10-31T08:43:46;6.33;;;3.30;;
7607;SDS011;3845;48.120;11.534;2022-10-31T08:46:11;7.07;;;3.40;;
7607;SDS011;3845;48.120;11.534;2022-10-31T08:48:37;6.30;;;3.90;;
7607;SDS011;3845;48.120;11.534;2022-10-31T08:51:02;6.83;;;3.63;;
7607;SDS011;3845;48.120;11.534;2022-10-31T08:53:28;6.20;;;3.70;;
7607;SDS011;3845;48.120;11.534;2022-10-31T08:55:56;7.20;;;4.20;;
7607;SDS011;3845;48.120;11.534;2022-10-31T08:58:22;6.87;;;3.80;;
7607;SDS011;3845;48.120;11.534;2022-10-31T09:00:49;5.80;;;3.80;;
7607;SDS011;3845;48.120;11.534;2022-10-31T09:03:26;6.03;;;3.63;;
7607;SDS011;3845;48.120;11.534;2022-10-31T09:05:55;7.40;;;4.17;;
7607;SDS011;3845;48.120;11.534;2022-10-31T09:08:21;7.10;;;4.57;;
7607;SDS011;3845;48.120;11.534;2022-10-31T09:10:47;6.77;;;4.23;;
7607;SDS011;3845;48.120;11.534;2022-10-31T09:13:13;9.57;;;5.10;;
7607;SDS011;3845;48.120;11.534;2022-10-31T09:15:42;8.97;;;4.53;;
7607;SDS011;3845;48.120;11.534;2022-10-31T09:18:09;10.80;;;4.47;;
7607;SDS011;3845;48.120;11.534;2022-10-31T09:20:35;8.23;;;4.40;;
7607;SDS011;3845;48.120;11.534;2022-10-31T09:23:02;7.50;;;4.47;;
7607;SDS011;3845;48.120;11.534;2022-10-31T09:25:35;10.40;;;4.90;;
7607;SDS011;3845;48.120;11.534;2022-10-31T09:28:01;7.27;;;4.20;;
7607;SDS011;3845;48.120;11.534;2022-10-31T09:30:28;8.60;;;4.27;;
7607;SDS011;3845;48.120;11.534;2022-10-31T09:32:57;9.60;;;4.30;;
7607;SDS011;3845;48.120;11.534;2022-10-31T09:35:27;7.13;;;4.00;;
7607;SDS011;3845;48.120;11.534;2022-10-31T09:37:53;6.20;;;4.03;;
7607;SDS011;3845;48.120;11.534;2022-10-31T09:40:41;8.27;;;4.80;;
7607;SDS011;3845;48.120;11.534;2022-10-31T09:50:57;9.70;;;4.00;;
7607;SDS011;3845;48.120;11.534;2022-10-31T09:53:42;5.10;;;3.90;;
7607;SDS011;3845;48.120;11.534;2022-10-31T09:56:14;4.63;;;3.53;;
7607;SDS011;3845;48.120;11.534;2022-10-31T09:58:45;8.20;;;3.70;;
7607;SDS011;3845;48.120;11.534;2022-10-31T10:01:23;6.17;;;3.77;;
7607;SDS011;3845;48.120;11.534;2022-10-31T10:03:55;7.77;;;3.23;;
7607;SDS011;3845;48.120;11.534;2022-10-31T10:06:25;5.73;;;3.33;;
7607;SDS011;3845;48.120;11.534;2022-10-31T10:08:52;9.13;;;3.53;;
7607;SDS011;3845;48.120;11.534;2022-10-31T10:17:36;10.03;;;3.57;;
7607;SDS011;3845;48.120;11.534;2022-10-31T10:23:01;6.83;;;3.47;;
7607;SDS011;3845;48.120;11.534;2022-10-31T10:25:34;6.40;;;3.20;;
7607;SDS011;3845;48.120;11.534;2022-10-31T10:28:27;6.37;;;3.20;;
7607;SDS011;3845;48.120;11.534;2022-10-31T10:33:31;5.70;;;2.70;;
7607;SDS011;3845;48.120;11.534;2022-10-31T10:38:31;6.40;;;3.10;;
7607;SDS011;3845;48.120;11.534;2022-10-31T10:41:00;5.97;;;3.20;;
7607;SDS011;3845;48.120;11.534;2022-10-31T10:43:33;6.07;;;3.37;;
7607;SDS011;3845;48.120;11.534;2022-10-31T10:49:29;6.70;;;3.13;;
7607;SDS011;3845;48.120;11.534;2022-10-31T10:51:57;5.73;;;3.20;;
7607;SDS011;3845;48.120;11.534;2022-10-31T10:59:40;6.57;;;3.00;;
7607;SDS011;3845;48.120;11.534;2022-10-31T11:02:16;6.53;;;3.17;;
7607;SDS011;3845;48.120;11.534;2022-10-31T11:04:43;5.20;;;3.00;;
7607;SDS011;3845;48.120;11.534;2022-10-31T11:07:10;6.47;;;3.00;;
7607;SDS011;3845;48.120;11.534;2022-10-31T11:09:36;8.10;;;3.27;;
7607;SDS011;3845;48.120;11.534;2022-10-31T11:12:21;6.27;;;3.00;;
7607;SDS011;3845;48.120;11.534;2022-10-31T11:14:50;7.00;;;3.30;;
7607;SDS011;3845;48.120;11.534;2022-10-31T11:17:38;8.73;;;2.77;;
7607;SDS011;3845;48.120;11.534;2022-10-31T11:20:05;7.40;;;3.17;;
7607;SDS011;3845;48.120;11.534;2022-10-31T11:22:47;7.13;;;3.17;;
7607;SDS011;3845;48.120;11.534;2022-10-31T11:27:57;6.43;;;3.10;;
7607;SDS011;3845;48.120;11.534;2022-10-31T11:30:25;5.70;;;3.20;;
7607;SDS011;3845;48.120;11.534;2022-10-31T11:32:51;8.53;;;3.37;;
7607;SDS011;3845;48.120;11.534;2022-10-31T11:35:17;7.47;;;3.10;;
7607;SDS011;3845;48.120;11.534;2022-10-31T11:37:44;7.90;;;3.20;;
7607;SDS011;3845;48.120;11.534;2022-10-31T11:40:22;7.47;;;3.40;;
7607;SDS011;3845;48.120;11.534;2022-10-31T11:42:50;6.23;;;3.17;;
7607;SDS011;3845;48.120;11.534;2022-10-31T11:47:49;6.07;;;3.00;;
7607;SDS011;3845;48.120;11.534;2022-10-31T11:50:20;5.63;;;2.87;;
7607;SDS011;3845;48.120;11.534;2022-10-31T11:52:48;6.37;;;3.00;;
7607;SDS011;3845;48.120;11.534;2022-10-31T11:55:15;5.10;;;2.80;;
7607;SDS011;3845;48.120;11.534;2022-10-31T11:57:51;5.80;;;2.70;;
7607;SDS011;3845;48.120;11.534;2022-10-31T12:00:21;6.83;;;2.60;;
7607;SDS011;3845;48.120;11.534;2022-10-31T12:02:50;6.20;;;2.50;;
7607;SDS011;3845;48.120;11.534;2022-10-31T12:05:26;5.90;;;2.50;;
7607;SDS011;3845;48.120;11.534;2022-10-31T12:07:57;6.80;;;2.60;;
7607;SDS011;3845;48.120;11.534;2022-10-31T12:10:24;4.80;;;2.57;;
7607;SDS011;3845;48.120;11.534;2022-10-31T12:13:05;6.37;;;2.77;;
7607;SDS011;3845;48.120;11.534;2022-10-31T12:15:39;3.87;;;2.70;;
7607;SDS011;3845;48.120;11.534;2022-10-31T12:31:55;7.80;;;3.10;;
7607;SDS011;3845;48.120;11.534;2022-10-31T12:34:48;6.83;;;2.70;;
7607;SDS011;3845;48.120;11.534;2022-10-31T12:37:36;5.47;;;2.50;;
7607;SDS011;3845;48.120;11.534;2022-10-31T12:45:52;4.37;;;2.40;;
7607;SDS011;3845;48.120;11.534;2022-10-31T12:54:05;4.60;;;2.33;;
7607;SDS011;3845;48.120;11.534;2022-10-31T12:59:40;8.63;;;2.80;;
7607;SDS011;3845;48.120;11.534;2022-10-31T13:07:23;4.83;;;3.10;;
7607;SDS011;3845;48.120;11.534;2022-10-31T13:09:56;7.90;;;3.50;;
7607;SDS011;3845;48.120;11.534;2022-10-31T13:12:24;7.73;;;3.07;;
7607;SDS011;3845;48.120;11.534;2022-10-31T13:14:53;5.73;;;2.73;;
7607;SDS011;3845;48.120;11.534;2022-10-31T13:17:24;5.17;;;2.70;;
7607;SDS011;3845;48.120;11.534;2022-10-31T13:19:54;7.00;;;3.13;;
7607;SDS011;3845;48.120;11.534;2022-10-31T13:22:24;8.30;;;3.00;;
7607;SDS011;3845;48.120;11.534;2022-10-31T13:27:23;6.10;;;2.77;;
7607;SDS011;3845;48.120;11.534;2022-10-31T13:32:36;6.13;;;2.90;;
7607;SDS011;3845;48.120;11.534;2022-10-31T13:35:05;6.10;;;3.40;;
7607;SDS011;3845;48.120;11.534;2022-10-31T13:37:39;7.13;;;2.90;;
7607;SDS011;3845;48.120;11.534;2022-10-31T13:42:41;4.87;;;2.97;;
7607;SDS011;3845;48.120;11.534;2022-10-31T13:45:15;7.23;;;3.10;;
7607;SDS011;3845;48.120;11.534;2022-10-31T13:47:42;6.33;;;3.00;;
7607;SDS011;3845;48.120;11.534;2022-10-31T13:50:24;8.50;;;3.10;;
7607;SDS011;3845;48.120;11.534;2022-10-31T13:53:13;7.20;;;3.30;;
7607;SDS011;3845;48.120;11.534;2022-10-31T13:55:48;7.40;;;3.30;;
7607;SDS011;3845;48.120;11.534;2022-10-31T14:01:01;7.83;;;2.90;;
7607;SDS011;3845;48.120;11.534;2022-10-31T14:03:38;9.77;;;3.40;;
7607;SDS011;3845;48.120;11.534;2022-10-31T14:06:05;6.93;;;3.30;;
7607;SDS011;3845;48.120;11.534;2022-10-31T14:08:33;7.53;;;3.80;;
7607;SDS011;3845;48.120;11.534;2022-10-31T14:11:01;7.10;;;3.50;;
7607;SDS011;3845;48.120;11.534;2022-10-31T14:16:06;10.80;;;3.33;;
7607;SDS011;3845;48.120;11.534;2022-10-31T14:18:41;6.60;;;3.30;;
7607;SDS011;3845;48.120;11.534;2022-10-31T14:21:15;9.50;;;3.30;;
7607;SDS011;3845;48.120;11.534;2022-10-31T14:23:40;7.37;;;3.13;;
7607;SDS011;3845;48.120;11.534;2022-10-31T14:28:48;10.10;;;3.60;;
7607;SDS011;3845;48.120;11.534;2022-10-31T14:31:27;6.80;;;3.50;;
7607;SDS011;3845;48.120;11.534;2022-10-31T14:33:54;8.60;;;3.43;;
7607;SDS011;3845;48.120;11.534;2022-10-31T14:36:23;7.97;;;3.70;;
7607;SDS011;3845;48.120;11.534;2022-10-31T14:41:41;5.67;;;3.70;;
7607;SDS011;3845;48.120;11.534;2022-10-31T14:47:08;7.43;;;3.63;;
7607;SDS011;3845;48.120;11.534;2022-10-31T14:52:52;6.17;;;4.00;;
7607;SDS011;3845;48.120;11.534;2022-10-31T14:55:20;7.70;;;3.73;;
7607;SDS011;3845;48.120;11.534;2022-10-31T14:58:07;7.40;;;3.90;;
7607;SDS011;3845;48.120;11.534;2022-10-31T15:00:32;9.90;;;4.23;;
7607;SDS011;3845;48.120;11.534;2022-10-31T15:03:03;8.57;;;4.10;;
7607;SDS011;3845;48.120;11.534;2022-10-31T15:05:32;7.17;;;4.00;;
7607;SDS011;3845;48.120;11.534;2022-10-31T15:07:59;10.00;;;4.00;;
7607;SDS011;3845;48.120;11.534;2022-10-31T15:10:26;7.37;;;3.50;;
7607;SDS011;3845;48.120;11.534;2022-10-31T15:12:54;7.07;;;4.10;;
7607;SDS011;3845;48.120;11.534;2022-10-31T15:15:21;10.67;;;3.80;;
7607;SDS011;3845;48.120;11.534;2022-10-31T15:17:52;8.33;;;4.10;;
7607;SDS011;3845;48.120;11.534;2022-10-31T15:20:20;8.47;;;4.20;;
7607;SDS011;3845;48.120;11.534;2022-10-31T15:22:48;5.67;;;4.03;;
7607;SDS011;3845;48.120;11.534;2022-10-31T15:25:20;6.47;;;4.37;;
7607;SDS011;3845;48.120;11.534;2022-10-31T15:27:47;6.83;;;3.90;;
7607;SDS011;3845;48.120;11.534;2022-10-31T15:30:16;8.70;;;4.90;;
7607;SDS011;3845;48.120;11.534;2022-10-31T15:32:52;7.23;;;5.03;;
7607;SDS011;3845;48.120;11.534;2022-10-31T15:35:19;8.10;;;4.20;;
7607;SDS011;3845;48.120;11.534;2022-10-31T15:37:47;9.30;;;5.03;;
7607;SDS011;3845;48.120;11.534;2022-10-31T15:40:16;10.77;;;5.17;;
7607;SDS011;3845;48.120;11.534;2022-10-31T15:42:44;9.23;;;4.53;;
7607;SDS011;3845;48.120;11.534;2022-10-31T15:47:44;6.53;;;4.23;;
7607;SDS011;3845;48.120;11.534;2022-10-31T15:50:18;7.77;;;4.20;;
7607;SDS011;3845;48.120;11.534;2022-10-31T15:52:46;6.90;;;4.70;;
7607;SDS011;3845;48.120;11.534;2022-10-31T15:55:19;8.13;;;4.50;;
7607;SDS011;3845;48.120;11.534;2022-10-31T15:57:48;5.90;;;4.47;;
7607;SDS011;3845;48.120;11.534;2022-10-31T16:05:44;8.63;;;5.30;;
7607;SDS011;3845;48.120;11.534;2022-10-31T16:11:13;17.70;;;9.70;;
7607;SDS011;3845;48.120;11.534;2022-10-31T16:13:51;19.47;;;10.73;;
7607;SDS011;3845;48.120;11.534;2022-10-31T16:16:18;16.20;;;8.00;;
7607;SDS011;3845;48.120;11.534;2022-10-31T16:18:45;11.03;;;7.60;;
7607;SDS011;3845;48.120;11.534;2022-10-31T16:21:10;11.47;;;7.50;;
7607;SDS011;3845;48.120;11.534;2022-10-31T16:23:37;13.67;;;9.60;;
7607;SDS011;3845;48.120;11.534;2022-10-31T16:26:07;18.97;;;13.37;;
7607;SDS011;3845;48.120;11.534;2022-10-31T16:28:33;19.70;;;15.00;;
7607;SDS011;3845;48.120;11.534;2022-10-31T16:30:58;13.53;;;10.27;;
7607;SDS011;3845;48.120;11.534;2022-10-31T16:33:28;13.93;;;9.47;;
7607;SDS011;3845;48.120;11.534;2022-10-31T16:36:00;13.03;;;7.93;;
7607;SDS011;3845;48.120;11.534;2022-10-31T16:38:27;10.27;;;7.67;;
7607;SDS011;3845;48.120;11.534;2022-10-31T16:40:52;12.27;;;7.57;;
7607;SDS011;3845;48.120;11.534;2022-10-31T16:43:18;9.60;;;6.30;;
7607;SDS011;3845;48.120;11.534;2022-10-31T16:45:48;9.90;;;6.27;;
7607;SDS011;3845;48.120;11.534;2022-10-31T16:48:16;8.63;;;6.00;;
7607;SDS011;3845;48.120;11.534;2022-10-31T16:50:47;11.67;;;6.77;;
7607;SDS011;3845;48.120;11.534;2022-10-31T16:53:14;13.03;;;6.20;;
7607;SDS011;3845;48.120;11.534;2022-10-31T16:56:02;10.77;;;6.10;;
7607;SDS011;3845;48.120;11.534;2022-10-31T16:58:30;11.17;;;6.40;;
7607;SDS011;3845;48.120;11.534;2022-10-31T17:00:58;10.63;;;6.10;;
7607;SDS011;3845;48.120;11.534;2022-10-31T17:03:23;9.53;;;6.20;;
7607;SDS011;3845;48.120;11.534;2022-10-31T17:05:49;13.47;;;6.50;;
7607;SDS011;3845;48.120;11.534;2022-10-31T17:08:14;11.67;;;6.63;;
7607;SDS011;3845;48.120;11.534;2022-10-31T17:10:40;8.60;;;6.13;;
7607;SDS011;3845;48.120;11.534;2022-10-31T17:13:07;8.30;;;6.00;;
7607;SDS011;3845;48.120;11.534;2022-10-31T17:15:37;12.37;;;6.00;;
7607;SDS011;3845;48.120;11.534;2022-10-31T17:18:04;9.67;;;6.30;;
7607;SDS011;3845;48.120;11.534;2022-10-31T17:20:29;9.00;;;6.57;;
7607;SDS011;3845;48.120;11.534;2022-10-31T17:22:56;12.17;;;8.73;;